Time;durP1;ratioP1;P1;durP2;ratioP2;P2;SDS_P1;SDS_P2;PMS_P1;PMS_P2;Temp;Humidity;BMP_temperature;BMP_pressure;BME280_temperature;BME280_humidity;BME280_pressure;Samples;Min_cycle;Max_cycle;Signal;HPM_P1;HPM_P2
2023/03/08 00:01:12;;;;;;;14.25;8.32;;;;;;;;;;5007989;28;20034;-79
2023/03/08 00:03:40;;;;;;;12.02;8.20;;;;;;;;;;5005897;28;20065;-79
2023/03/08 00:06:08;;;;;;;12.82;8.25;;;;;;;;;;5005572;28;20488;-78
2023/03/08 00:08:36;;;;;;;13.98;8.93;;;;;;;;;;5006351;28;20056;-79
2023/03/08 00:11:11;;;;;;;11.85;8.43;;;;;;;;;;5006642;28;20554;-79
2023/03/08 00:13:38;;;;;;;10.57;7.72;;;;;;;;;;4994741;28;20396;-79
2023/03/08 00:16:08;;;;;;;15.20;8.88;;;;;;;;;;5002669;28;20053;-79
2023/03/08 00:18:36;;;;;;;13.93;7.80;;;;;;;;;;4999656;28;20427;-80
2023/03/08 00:21:03;;;;;;;9.85;6.68;;;;;;;;;;4996400;28;20046;-79
2023/03/08 00:23:31;;;;;;;8.63;6.65;;;;;;;;;;5004190;28;20054;-78
2023/03/08 00:25:58;;;;;;;11.80;7.30;;;;;;;;;;5008020;28;20058;-79
2023/03/08 00:28:26;;;;;;;9.05;6.38;;;;;;;;;;5008480;28;20053;-79
2023/03/08 00:30:55;;;;;;;8.10;5.13;;;;;;;;;;4990362;28;20049;-81
2023/03/08 00:33:22;;;;;;;7.13;5.65;;;;;;;;;;5007936;28;20049;-79
2023/03/08 00:35:56;;;;;;;9.65;6.57;;;;;;;;;;4990375;28;20145;-78
2023/03/08 00:38:24;;;;;;;7.93;5.47;;;;;;;;;;5008297;28;20049;-80
2023/03/08 00:40:52;;;;;;;7.80;6.30;;;;;;;;;;4990322;28;20054;-78
2023/03/08 00:43:20;;;;;;;9.90;8.95;;;;;;;;;;4989763;28;20407;-77
2023/03/08 00:45:47;;;;;;;10.98;9.93;;;;;;;;;;5007570;28;20523;-78
2023/03/08 00:48:20;;;;;;;8.10;6.80;;;;;;;;;;4991119;28;20099;-79
2023/03/08 00:50:48;;;;;;;6.80;5.03;;;;;;;;;;5007805;28;20421;-77
2023/03/08 00:53:16;;;;;;;10.65;5.72;;;;;;;;;;5007800;28;20093;-78
2023/03/08 00:55:50;;;;;;;12.45;5.18;;;;;;;;;;5007692;28;20117;-79
2023/03/08 00:58:18;;;;;;;7.25;6.50;;;;;;;;;;4989574;28;20136;-78
2023/03/08 01:00:46;;;;;;;7.40;5.10;;;;;;;;;;4989923;28;20046;-78
2023/03/08 01:03:14;;;;;;;8.23;5.68;;;;;;;;;;4989425;28;20050;-78
2023/03/08 01:05:45;;;;;;;6.97;5.05;;;;;;;;;;4990037;28;20508;-78
2023/03/08 01:08:13;;;;;;;10.32;5.30;;;;;;;;;;5007212;28;20478;-78
2023/03/08 01:10:40;;;;;;;6.70;5.03;;;;;;;;;;5007200;28;20387;-78
2023/03/08 01:13:08;;;;;;;8.43;5.97;;;;;;;;;;4989471;28;20076;-80
2023/03/08 01:15:36;;;;;;;6.88;5.38;;;;;;;;;;5006589;28;20496;-80
2023/03/08 01:18:05;;;;;;;8.10;5.53;;;;;;;;;;5007526;28;20129;-81
2023/03/08 01:20:32;;;;;;;9.57;6.15;;;;;;;;;;4989344;28;20050;-80
2023/03/08 01:23:02;;;;;;;14.80;6.45;;;;;;;;;;4989228;28;20053;-80
2023/03/08 01:25:30;;;;;;;11.85;6.88;;;;;;;;;;5020903;28;20141;-79
2023/03/08 01:27:57;;;;;;;14.13;7.22;;;;;;;;;;5027838;28;20038;-81
2023/03/08 01:30:25;;;;;;;16.70;7.30;;;;;;;;;;5023067;28;20108;-78
2023/03/08 01:32:52;;;;;;;15.15;7.50;;;;;;;;;;5006701;28;20053;-78
2023/03/08 01:35:20;;;;;;;16.00;7.65;;;;;;;;;;4988891;28;20088;-79
2023/03/08 01:37:52;;;;;;;16.25;7.47;;;;;;;;;;4988749;28;20046;-79
2023/03/08 01:40:20;;;;;;;19.98;8.63;;;;;;;;;;4988750;28;20064;-78
2023/03/08 01:42:48;;;;;;;22.05;9.38;;;;;;;;;;5005887;28;20041;-79
2023/03/08 01:45:35;;;;;;;24.83;10.13;;;;;;;;;;4988797;28;20105;-79
2023/03/08 01:48:02;;;;;;;22.98;9.75;;;;;;;;;;4988781;28;20056;-78
2023/03/08 01:50:49;;;;;;;27.90;10.30;;;;;;;;;;5006446;28;20056;-81
2023/03/08 01:53:17;;;;;;;25.83;11.07;;;;;;;;;;5006318;28;20058;-79
2023/03/08 01:55:44;;;;;;;33.97;11.05;;;;;;;;;;5006165;28;20062;-79
2023/03/08 01:58:12;;;;;;;19.85;10.23;;;;;;;;;;5005996;28;20048;-80
2023/03/08 02:00:40;;;;;;;19.65;9.43;;;;;;;;;;4988987;28;20088;-78
2023/03/08 02:03:10;;;;;;;28.35;9.23;;;;;;;;;;4987964;28;20555;-79
2023/03/08 02:05:41;;;;;;;19.55;9.23;;;;;;;;;;4988612;28;20046;-78
2023/03/08 02:08:19;;;;;;;15.87;8.63;;;;;;;;;;4988693;28;20053;-80
2023/03/08 02:10:47;;;;;;;11.32;6.38;;;;;;;;;;4988737;28;20081;-79
2023/03/08 02:13:15;;;;;;;12.40;6.80;;;;;;;;;;5006064;28;20298;-80
2023/03/08 02:15:43;;;;;;;11.95;6.60;;;;;;;;;;4988230;28;20050;-78
2023/03/08 02:18:11;;;;;;;17.30;7.50;;;;;;;;;;4988570;28;20352;-81
2023/03/08 02:20:39;;;;;;;13.20;7.68;;;;;;;;;;5005523;28;20053;-79
2023/03/08 02:23:21;;;;;;;11.63;7.68;;;;;;;;;;4988070;28;20167;-79
2023/03/08 02:25:52;;;;;;;13.80;7.17;;;;;;;;;;5006268;28;20060;-78
2023/03/08 02:28:21;;;;;;;12.00;7.32;;;;;;;;;;5009630;28;20054;-78
2023/03/08 02:30:49;;;;;;;10.68;6.57;;;;;;;;;;5009571;28;20471;-79
2023/03/08 02:33:17;;;;;;;10.63;6.80;;;;;;;;;;4991887;28;20073;-78
2023/03/08 02:35:45;;;;;;;10.10;6.13;;;;;;;;;;5009521;28;20458;-78
2023/03/08 02:38:13;;;;;;;11.05;6.95;;;;;;;;;;5009665;28;20124;-80
2023/03/08 02:40:41;;;;;;;7.78;5.65;;;;;;;;;;5009320;28;20453;-80
2023/03/08 02:43:09;;;;;;;9.75;6.80;;;;;;;;;;4991381;28;20490;-80
2023/03/08 02:45:39;;;;;;;6.97;5.68;;;;;;;;;;4991920;28;20416;-78
2023/03/08 02:48:07;;;;;;;8.07;6.07;;;;;;;;;;4992185;28;20077;-78
2023/03/08 02:50:35;;;;;;;16.13;6.45;;;;;;;;;;4992306;28;20163;-80
2023/03/08 02:53:07;;;;;;;;;;;;;;;;;;5010608;28;20062;-81
2023/03/08 02:55:38;;;;;;;7.43;5.93;;;;;;;;;;4991382;28;20280;-78
2023/03/08 02:58:10;;;;;;;8.63;6.00;;;;;;;;;;4991440;28;20065;-78
2023/03/08 03:00:38;;;;;;;9.10;5.90;;;;;;;;;;4991455;28;20046;-79
2023/03/08 03:03:06;;;;;;;10.13;6.05;;;;;;;;;;4990938;28;20423;-80
2023/03/08 03:05:33;;;;;;;6.93;5.45;;;;;;;;;;4991590;28;20054;-79
2023/03/08 03:08:04;;;;;;;8.20;5.93;;;;;;;;;;4991882;28;20144;-79
2023/03/08 03:10:34;;;;;;;7.18;5.45;;;;;;;;;;5028171;28;20064;-82
2023/03/08 03:13:01;;;;;;;6.72;5.22;;;;;;;;;;5010990;28;20049;-81
2023/03/08 03:15:31;;;;;;;7.93;5.65;;;;;;;;;;5008472;28;20106;-78
2023/03/08 03:17:59;;;;;;;11.50;5.47;;;;;;;;;;4991403;28;20045;-79
2023/03/08 03:20:26;;;;;;;9.77;6.45;;;;;;;;;;5008602;28;20050;-80
2023/03/08 03:22:54;;;;;;;11.50;5.90;;;;;;;;;;4991047;28;20041;-78
2023/03/08 03:25:27;;;;;;;9.98;6.05;;;;;;;;;;4991125;28;20423;-79
2023/03/08 03:27:56;;;;;;;8.70;6.03;;;;;;;;;;4991016;28;20499;-78
2023/03/08 03:30:26;;;;;;;8.85;5.45;;;;;;;;;;4991269;28;20042;-78
2023/03/08 03:32:53;;;;;;;10.65;6.72;;;;;;;;;;4991008;28;20092;-79
2023/03/08 03:35:26;;;;;;;8.70;6.15;;;;;;;;;;5008483;28;20119;-80
2023/03/08 03:37:53;;;;;;;9.25;6.15;;;;;;;;;;4990039;28;20049;-79
2023/03/08 03:40:21;;;;;;;7.65;5.70;;;;;;;;;;4990602;28;20484;-79
2023/03/08 03:42:54;;;;;;;10.38;6.50;;;;;;;;;;4990273;28;20408;-78
2023/03/08 03:45:22;;;;;;;8.85;6.07;;;;;;;;;;4990401;28;20125;-79
2023/03/08 03:47:50;;;;;;;8.13;5.57;;;;;;;;;;4990270;28;20452;-79
2023/03/08 03:50:17;;;;;;;9.15;5.88;;;;;;;;;;4990570;28;20053;-79
2023/03/08 03:52:56;;;;;;;8.50;6.03;;;;;;;;;;4990406;28;20050;-79
2023/03/08 03:55:24;;;;;;;8.25;5.82;;;;;;;;;;5008077;28;20133;-79
2023/03/08 03:57:51;;;;;;;7.45;5.60;;;;;;;;;;4990565;28;20526;-78
2023/03/08 04:00:21;;;;;;;9.40;6.10;;;;;;;;;;4990061;28;20514;-79
2023/03/08 04:02:59;;;;;;;9.00;6.40;;;;;;;;;;4990578;28;20099;-79
2023/03/08 04:05:28;;;;;;;9.50;6.78;;;;;;;;;;4990936;28;20373;-78
2023/03/08 04:07:55;;;;;;;61.25;36.78;;;;;;;;;;4990536;28;20512;-78
2023/03/08 04:10:27;;;;;;;17.02;7.00;;;;;;;;;;4990178;28;20157;-80
2023/03/08 04:12:55;;;;;;;9.70;6.30;;;;;;;;;;4990109;28;20084;-78
2023/03/08 04:15:22;;;;;;;12.98;6.55;;;;;;;;;;5008103;28;20049;-79
2023/03/08 04:17:51;;;;;;;11.65;6.72;;;;;;;;;;4990761;28;20038;-78
2023/03/08 04:20:21;;;;;;;11.65;6.15;;;;;;;;;;4990205;28;20152;-79
2023/03/08 04:22:54;;;;;;;8.25;6.10;;;;;;;;;;5007890;28;20484;-77
2023/03/08 04:25:36;;;;;;;11.10;7.00;;;;;;;;;;4990458;28;20049;-78
2023/03/08 04:28:05;;;;;;;11.07;5.78;;;;;;;;;;4990134;28;20041;-80
2023/03/08 04:30:33;;;;;;;10.50;6.10;;;;;;;;;;4989624;28;20056;-79
2023/03/08 04:33:02;;;;;;;9.27;6.93;;;;;;;;;;4989251;28;20395;-79
2023/03/08 04:35:38;;;;;;;9.60;6.50;;;;;;;;;;4989802;28;20053;-78
2023/03/08 04:38:06;;;;;;;10.68;6.85;;;;;;;;;;5007430;28;20053;-78
2023/03/08 04:41:00;;;;;;;10.23;6.82;;;;;;;;;;4989771;28;20100;-80
2023/03/08 04:43:22;;;;;;;11.88;6.93;;;;;;;;;;5046046;23;20465;-80
2023/03/08 04:45:50;;;;;;;10.68;7.10;;;;;;;;;;5028714;28;20788;-81
2023/03/08 04:48:18;;;;;;;10.15;7.03;;;;;;;;;;5026620;28;20091;-79
2023/03/08 04:50:51;;;;;;;10.77;7.65;;;;;;;;;;5027510;28;20053;-82
2023/03/08 04:53:20;;;;;;;9.43;6.25;;;;;;;;;;5027400;28;20049;-80
2023/03/08 04:55:47;;;;;;;9.43;6.97;;;;;;;;;;5027143;28;20326;-80
2023/03/08 04:58:16;;;;;;;12.80;7.65;;;;;;;;;;5027327;28;20515;-80
2023/03/08 05:00:44;;;;;;;11.57;6.50;;;;;;;;;;5028529;28;20068;-80
2023/03/08 05:03:13;;;;;;;10.65;7.15;;;;;;;;;;5026273;28;20079;-80
2023/03/08 05:05:44;;;;;;;12.55;7.90;;;;;;;;;;5026323;28;20437;-80
2023/03/08 05:08:12;;;;;;;13.40;8.10;;;;;;;;;;5026377;28;20045;-80
2023/03/08 05:10:46;;;;;;;9.38;7.30;;;;;;;;;;5030730;28;20046;-80
2023/03/08 05:13:13;;;;;;;12.38;7.57;;;;;;;;;;5027539;28;20060;-80
2023/03/08 05:15:41;;;;;;;10.52;7.35;;;;;;;;;;5027654;28;20115;-80
2023/03/08 05:18:09;;;;;;;11.85;9.25;;;;;;;;;;5029321;28;20099;-80
2023/03/08 05:20:38;;;;;;;14.00;8.55;;;;;;;;;;5028597;28;20045;-79
2023/03/08 05:23:06;;;;;;;16.38;12.13;;;;;;;;;;5029221;28;20499;-79
2023/03/08 05:25:42;;;;;;;19.08;10.70;;;;;;;;;;5028571;28;20053;-79
2023/03/08 05:28:14;;;;;;;15.15;10.48;;;;;;;;;;5028199;28;20407;-80
2023/03/08 05:30:43;;;;;;;16.30;9.93;;;;;;;;;;5030350;28;20053;-80
2023/03/08 05:33:11;;;;;;;15.05;9.93;;;;;;;;;;5029161;28;20549;-81
2023/03/08 05:35:39;;;;;;;15.35;10.43;;;;;;;;;;5029432;28;20176;-80
2023/03/08 05:38:07;;;;;;;13.25;9.40;;;;;;;;;;5029465;28;20052;-80
2023/03/08 05:40:36;;;;;;;14.25;10.68;;;;;;;;;;5029626;28;20053;-80
2023/03/08 05:43:04;;;;;;;15.65;9.43;;;;;;;;;;5033574;28;20075;-80
2023/03/08 05:45:31;;;;;;;17.23;9.93;;;;;;;;;;5031041;28;20123;-80
2023/03/08 05:47:59;;;;;;;13.60;8.73;;;;;;;;;;5030314;28;20466;-80
2023/03/08 05:50:27;;;;;;;14.20;8.80;;;;;;;;;;5039623;28;20049;-80
2023/03/08 05:52:54;;;;;;;17.45;9.85;;;;;;;;;;5034781;28;20422;-80
2023/03/08 05:55:26;;;;;;;15.20;8.85;;;;;;;;;;5028109;28;20052;-80
2023/03/08 05:57:55;;;;;;;13.15;8.75;;;;;;;;;;5027782;28;20060;-80
2023/03/08 06:00:22;;;;;;;12.00;8.50;;;;;;;;;;5009524;28;20069;-80
2023/03/08 06:02:54;;;;;;;19.60;9.20;;;;;;;;;;5031778;28;20049;-80
2023/03/08 06:05:23;;;;;;;16.02;10.18;;;;;;;;;;5032079;28;20061;-80
2023/03/08 06:07:54;;;;;;;12.80;7.80;;;;;;;;;;5032621;28;20530;-80
2023/03/08 06:10:22;;;;;;;12.57;8.48;;;;;;;;;;5032952;28;20105;-79
2023/03/08 06:12:50;;;;;;;16.00;9.75;;;;;;;;;;5033681;28;20526;-81
2023/03/08 06:15:19;;;;;;;17.45;11.63;;;;;;;;;;5030623;28;20044;-80
2023/03/08 06:17:47;;;;;;;13.30;9.23;;;;;;;;;;5020320;28;20045;-79
2023/03/08 06:20:18;;;;;;;18.10;9.48;;;;;;;;;;5030148;28;20582;-79
2023/03/08 06:22:49;;;;;;;12.20;8.17;;;;;;;;;;5030169;28;20044;-80
2023/03/08 06:25:16;;;;;;;18.88;10.00;;;;;;;;;;5030505;28;20140;-80
2023/03/08 06:27:46;;;;;;;18.20;8.90;;;;;;;;;;5031453;28;20124;-80
2023/03/08 06:30:29;;;;;;;15.13;8.23;;;;;;;;;;5026154;28;20041;-79
2023/03/08 06:32:57;;;;;;;15.30;8.60;;;;;;;;;;5017021;28;20057;-81
2023/03/08 06:35:24;;;;;;;15.88;9.60;;;;;;;;;;5033145;28;20156;-80
2023/03/08 06:37:57;;;;;;;16.30;10.35;;;;;;;;;;5014941;28;20049;-80
2023/03/08 06:40:26;;;;;;;20.25;10.65;;;;;;;;;;5019155;28;20136;-80
2023/03/08 06:42:54;;;;;;;13.93;9.43;;;;;;;;;;5031515;28;20049;-79
2023/03/08 06:45:21;;;;;;;14.10;10.10;;;;;;;;;;5028851;28;20132;-79
2023/03/08 06:47:49;;;;;;;16.02;9.90;;;;;;;;;;5031282;28;20404;-80
2023/03/08 06:50:17;;;;;;;18.73;9.02;;;;;;;;;;5028758;28;20056;-81
2023/03/08 06:52:47;;;;;;;11.90;7.78;;;;;;;;;;5013850;28;20049;-80
2023/03/08 06:55:18;;;;;;;12.35;8.25;;;;;;;;;;5014421;28;20049;-81
2023/03/08 06:57:45;;;;;;;13.93;8.73;;;;;;;;;;5014238;28;20045;-81
2023/03/08 07:00:14;;;;;;;16.48;8.43;;;;;;;;;;5033499;28;20067;-80
2023/03/08 07:02:41;;;;;;;12.02;8.40;;;;;;;;;;5033334;28;20051;-80
2023/03/08 07:05:09;;;;;;;15.10;8.65;;;;;;;;;;5034289;28;20045;-80
2023/03/08 07:07:38;;;;;;;14.73;9.30;;;;;;;;;;5033542;28;20565;-81
2023/03/08 07:10:06;;;;;;;18.48;15.88;;;;;;;;;;5016159;28;20046;-79
2023/03/08 07:12:35;;;;;;;16.45;10.27;;;;;;;;;;5033711;28;20054;-80
2023/03/08 07:15:02;;;;;;;17.98;9.07;;;;;;;;;;5030000;28;20047;-80
2023/03/08 07:17:31;;;;;;;15.80;9.32;;;;;;;;;;5029769;28;20789;-80
2023/03/08 07:19:59;;;;;;;15.38;9.40;;;;;;;;;;5030051;28;20050;-80
2023/03/08 07:22:26;;;;;;;11.43;8.68;;;;;;;;;;5011438;28;20049;-80
2023/03/08 07:24:53;;;;;;;14.10;8.35;;;;;;;;;;5030907;28;20533;-80
2023/03/08 07:27:21;;;;;;;22.17;13.85;;;;;;;;;;5031658;28;20049;-79
2023/03/08 07:29:48;;;;;;;15.57;9.10;;;;;;;;;;5030506;28;20452;-80
2023/03/08 07:32:15;;;;;;;13.35;7.93;;;;;;;;;;5023841;28;20049;-81
2023/03/08 07:34:43;;;;;;;24.77;12.68;;;;;;;;;;5029496;28;20091;-82
2023/03/08 07:37:14;;;;;;;13.52;8.05;;;;;;;;;;5028854;28;20052;-80
2023/03/08 07:39:42;;;;;;;17.15;8.02;;;;;;;;;;5028807;28;20049;-79
2023/03/08 07:42:10;;;;;;;12.57;8.30;;;;;;;;;;5029746;28;20103;-81
2023/03/08 07:44:38;;;;;;;12.40;7.85;;;;;;;;;;5013115;28;20052;-80
2023/03/08 07:47:05;;;;;;;14.98;8.20;;;;;;;;;;5030891;28;20053;-80
2023/03/08 07:49:33;;;;;;;12.13;8.52;;;;;;;;;;5038824;28;20117;-80
2023/03/08 07:52:01;;;;;;;15.27;8.50;;;;;;;;;;5039338;28;20057;-80
2023/03/08 07:54:28;;;;;;;21.38;8.63;;;;;;;;;;5029861;28;20053;-80
2023/03/08 07:56:55;;;;;;;14.88;8.43;;;;;;;;;;5029894;28;20369;-79
2023/03/08 07:59:23;;;;;;;15.93;8.45;;;;;;;;;;5030768;28;20045;-79
2023/03/08 08:01:51;;;;;;;12.70;9.00;;;;;;;;;;5025627;28;20096;-79
2023/03/08 08:04:22;;;;;;;15.05;8.63;;;;;;;;;;5007532;28;20037;-81
2023/03/08 08:06:49;;;;;;;14.70;9.10;;;;;;;;;;5009429;28;20051;-80
2023/03/08 08:09:17;;;;;;;16.20;9.15;;;;;;;;;;5010753;28;20168;-80
2023/03/08 08:11:44;;;;;;;14.35;8.43;;;;;;;;;;5011019;28;20054;-80
2023/03/08 08:14:12;;;;;;;13.50;9.10;;;;;;;;;;5011105;28;20448;-80
2023/03/08 08:16:39;;;;;;;16.17;8.85;;;;;;;;;;4993704;28;20081;-79
2023/03/08 08:19:11;;;;;;;20.67;10.93;;;;;;;;;;4993253;28;20045;-79
2023/03/08 08:21:38;;;;;;;11.70;7.95;;;;;;;;;;5012315;28;20100;-79
2023/03/08 08:24:07;;;;;;;15.93;8.98;;;;;;;;;;5012948;28;20046;-79
2023/03/08 08:26:35;;;;;;;14.27;9.77;;;;;;;;;;5017434;28;20120;-78
2023/03/08 08:29:02;;;;;;;12.43;7.95;;;;;;;;;;5036304;28;20081;-78
2023/03/08 08:31:30;;;;;;;17.90;8.73;;;;;;;;;;5029481;28;20049;-79
2023/03/08 08:33:58;;;;;;;12.82;7.95;;;;;;;;;;5030676;28;20099;-79
2023/03/08 08:36:26;;;;;;;12.75;8.07;;;;;;;;;;5030103;28;20482;-79
2023/03/08 08:38:53;;;;;;;13.45;8.05;;;;;;;;;;5029091;28;20388;-78
2023/03/08 08:41:21;;;;;;;11.57;8.43;;;;;;;;;;4998688;28;20038;-78
2023/03/08 08:43:49;;;;;;;10.95;7.72;;;;;;;;;;5030040;28;20042;-81
2023/03/08 08:46:17;;;;;;;17.42;8.43;;;;;;;;;;5019070;28;20573;-79
2023/03/08 08:48:47;;;;;;;14.57;7.47;;;;;;;;;;5030125;28;20045;-79
2023/03/08 08:51:15;;;;;;;15.05;12.60;;;;;;;;;;5029882;28;20042;-79
2023/03/08 08:53:43;;;;;;;10.20;7.38;;;;;;;;;;5029628;28;20574;-78
2023/03/08 08:56:11;;;;;;;11.57;10.18;;;;;;;;;;5020041;28;20045;-79
2023/03/08 08:58:54;;;;;;;9.93;7.53;;;;;;;;;;5018581;28;20056;-79
2023/03/08 09:01:26;;;;;;;13.10;7.25;;;;;;;;;;5029451;28;20418;-78
2023/03/08 09:03:54;;;;;;;14.07;8.35;;;;;;;;;;5030458;28;20058;-78
2023/03/08 09:06:23;;;;;;;12.48;7.47;;;;;;;;;;5024517;28;20929;-80
2023/03/08 09:08:51;;;;;;;9.60;8.10;;;;;;;;;;5029555;28;20132;-79
2023/03/08 09:11:18;;;;;;;11.40;7.15;;;;;;;;;;5036783;28;20149;-79
2023/03/08 09:13:46;;;;;;;10.27;6.57;;;;;;;;;;5029334;28;20053;-80
2023/03/08 09:16:24;;;;;;;128.48;120.43;;;;;;;;;;5019791;28;20033;-79
2023/03/08 09:18:55;;;;;;;9.07;7.35;;;;;;;;;;5030052;28;20507;-79
2023/03/08 09:21:23;;;;;;;15.07;13.05;;;;;;;;;;5030765;28;20154;-79
2023/03/08 09:23:55;;;;;;;8.10;6.43;;;;;;;;;;5030377;28;20053;-79
2023/03/08 09:26:23;;;;;;;15.25;8.00;;;;;;;;;;5029671;28;20067;-80
2023/03/08 09:28:51;;;;;;;12.00;10.43;;;;;;;;;;5030101;28;20529;-79
2023/03/08 09:31:19;;;;;;;9.95;8.40;;;;;;;;;;5028937;28;20057;-78
2023/03/08 09:33:47;;;;;;;155.38;145.27;;;;;;;;;;5026771;28;20150;-79
2023/03/08 09:36:15;;;;;;;46.85;43.60;;;;;;;;;;5015886;28;20045;-80
2023/03/08 09:38:42;;;;;;;10.70;8.23;;;;;;;;;;5003786;28;20091;-80
2023/03/08 09:41:10;;;;;;;8.15;6.95;;;;;;;;;;5016451;28;20034;-79
2023/03/08 09:43:46;;;;;;;14.82;13.40;;;;;;;;;;5019972;28;20555;-80
2023/03/08 09:46:24;;;;;;;16.35;14.70;;;;;;;;;;5019561;28;20121;-79
2023/03/08 09:48:52;;;;;;;11.10;10.02;;;;;;;;;;5028224;28;20060;-78
2023/03/08 09:51:21;;;;;;;11.85;9.23;;;;;;;;;;5027835;28;20057;-78
2023/03/08 09:53:53;;;;;;;7.57;6.38;;;;;;;;;;5026240;28;20121;-79
2023/03/08 09:56:33;;;;;;;6.82;6.13;;;;;;;;;;5021152;28;20488;-79
2023/03/08 09:59:19;;;;;;;100.25;92.95;;;;;;;;;;5018076;28;20045;-78
2023/03/08 10:01:46;;;;;;;14.10;12.85;;;;;;;;;;5001831;28;20048;-80
2023/03/08 10:04:24;;;;;;;7.07;6.38;;;;;;;;;;5000402;28;20049;-80
2023/03/08 10:07:18;;;;;;;6.80;6.10;;;;;;;;;;5026149;28;20099;-80
2023/03/08 10:09:57;;;;;;;19.85;15.73;;;;;;;;;;4989402;28;20054;-80
2023/03/08 10:12:33;;;;;;;8.30;6.15;;;;;;;;;;5027710;28;20507;-79
2023/03/08 10:15:08;;;;;;;7.45;5.60;;;;;;;;;;5019095;28;20358;-79
2023/03/08 10:17:47;;;;;;;8.32;6.05;;;;;;;;;;5030130;28;20046;-79
2023/03/08 10:20:32;;;;;;;7.55;5.60;;;;;;;;;;5023964;28;20073;-79
2023/03/08 10:23:01;;;;;;;7.43;6.40;;;;;;;;;;5023549;28;20403;-79
2023/03/08 10:25:30;;;;;;;12.70;7.65;;;;;;;;;;5026318;28;20511;-80
2023/03/08 10:27:59;;;;;;;7.35;6.50;;;;;;;;;;5029536;28;20072;-78
2023/03/08 10:30:35;;;;;;;7.22;5.93;;;;;;;;;;5026731;28;20045;-80
2023/03/08 10:33:07;;;;;;;7.78;5.93;;;;;;;;;;5019705;28;20045;-80
2023/03/08 10:35:36;;;;;;;12.27;11.15;;;;;;;;;;5020200;28;20547;-80
2023/03/08 10:38:05;;;;;;;8.60;6.32;;;;;;;;;;5003108;28;20033;-79
2023/03/08 10:40:32;;;;;;;21.27;19.40;;;;;;;;;;5023735;28;20153;-80
2023/03/08 10:43:13;;;;;;;8.65;6.88;;;;;;;;;;5003256;28;20060;-80
2023/03/08 10:45:41;;;;;;;10.70;7.63;;;;;;;;;;4965402;28;20051;-76
2023/03/08 10:48:19;;;;;;;9.73;6.57;;;;;;;;;;4965755;28;20247;-76
2023/03/08 10:50:57;;;;;;;9.25;6.50;;;;;;;;;;4968390;28;20133;-75
2023/03/08 10:53:28;;;;;;;9.65;8.75;;;;;;;;;;4970172;28;20043;-77
2023/03/08 10:55:57;;;;;;;8.70;7.27;;;;;;;;;;4966414;28;20697;-76
2023/03/08 10:58:30;;;;;;;21.45;17.55;;;;;;;;;;4969844;28;20051;-76
2023/03/08 11:01:00;;;;;;;41.08;37.42;;;;;;;;;;4965237;28;20083;-76
2023/03/08 11:03:28;;;;;;;8.43;7.65;;;;;;;;;;4958333;28;20046;-77
2023/03/08 11:05:57;;;;;;;8.30;6.43;;;;;;;;;;4964461;28;20046;-76
2023/03/08 11:08:30;;;;;;;8.65;5.93;;;;;;;;;;4962553;28;20137;-77
2023/03/08 11:11:01;;;;;;;9.13;6.35;;;;;;;;;;4947711;28;20101;-77
2023/03/08 11:13:31;;;;;;;6.80;6.03;;;;;;;;;;4966902;28;20489;-77
2023/03/08 11:16:17;;;;;;;10.70;6.05;;;;;;;;;;4949162;28;20058;-77
2023/03/08 11:18:57;;;;;;;9.40;6.82;;;;;;;;;;4960891;28;20405;-77
2023/03/08 11:21:48;;;;;;;6.18;5.57;;;;;;;;;;4955953;28;20054;-78
2023/03/08 11:24:17;;;;;;;9.40;6.35;;;;;;;;;;4965104;28;20042;-77
2023/03/08 11:26:51;;;;;;;9.63;6.22;;;;;;;;;;4965800;28;20043;-79
2023/03/08 11:29:37;;;;;;;13.75;6.80;;;;;;;;;;4965109;28;20046;-77
2023/03/08 11:32:19;;;;;;;12.98;7.00;;;;;;;;;;4965626;28;20074;-78
2023/03/08 11:37:59;;;;;;;6.95;5.63;;;;;;;;;;4975460;28;20038;-79
2023/03/08 11:40:40;;;;;;;8.65;6.38;;;;;;;;;;4974066;28;20043;-79
2023/03/08 11:43:26;;;;;;;7.80;6.70;;;;;;;;;;4971433;28;20046;-79
2023/03/08 11:46:26;;;;;;;8.43;5.93;;;;;;;;;;4985758;28;20057;-77
2023/03/08 11:49:10;;;;;;;9.55;7.22;;;;;;;;;;4934570;28;20065;-79
2023/03/08 11:51:38;;;;;;;11.38;8.73;;;;;;;;;;4977142;28;20065;-77
2023/03/08 11:54:07;;;;;;;10.07;6.55;;;;;;;;;;4979520;28;20454;-78
2023/03/08 11:56:47;;;;;;;8.00;6.60;;;;;;;;;;4976900;28;20106;-77
2023/03/08 11:59:17;;;;;;;7.60;6.05;;;;;;;;;;4970525;28;20110;-78
2023/03/08 12:01:44;;;;;;;9.73;7.10;;;;;;;;;;4971019;28;20058;-78
2023/03/08 12:04:33;;;;;;;12.43;9.20;;;;;;;;;;4969700;28;20220;-78
2023/03/08 12:07:08;;;;;;;10.13;7.57;;;;;;;;;;4968227;28;20074;-79
2023/03/08 12:09:39;;;;;;;8.48;6.50;;;;;;;;;;4966984;28;20522;-79
2023/03/08 12:12:16;;;;;;;13.77;7.47;;;;;;;;;;4968281;28;20047;-78
2023/03/08 12:15:07;;;;;;;10.20;6.93;;;;;;;;;;4949846;28;20449;-79
2023/03/08 12:17:36;;;;;;;6.75;6.15;;;;;;;;;;4968742;28;20050;-78
2023/03/08 12:20:12;;;;;;;9.15;6.75;;;;;;;;;;4969444;28;20043;-78
2023/03/08 12:22:47;;;;;;;6.93;5.95;;;;;;;;;;4967692;28;20390;-78
2023/03/08 12:25:26;;;;;;;7.07;5.70;;;;;;;;;;4967647;28;20051;-78
2023/03/08 12:28:16;;;;;;;8.70;6.78;;;;;;;;;;4970378;28;20067;-77
2023/03/08 12:30:51;;;;;;;9.25;6.57;;;;;;;;;;4969451;28;20062;-78
2023/03/08 12:33:19;;;;;;;14.10;10.98;;;;;;;;;;4969590;28;20093;-78
2023/03/08 12:35:54;;;;;;;7.10;6.00;;;;;;;;;;4972175;28;20059;-78
2023/03/08 12:38:21;;;;;;;6.68;5.88;;;;;;;;;;4971841;28;20057;-78
2023/03/08 12:40:50;;;;;;;9.30;5.85;;;;;;;;;;4971458;28;20062;-78
2023/03/08 12:43:20;;;;;;;9.68;6.35;;;;;;;;;;4971070;28;20440;-77
2023/03/08 12:46:00;;;;;;;8.85;6.38;;;;;;;;;;4970678;28;20119;-77
2023/03/08 12:48:27;;;;;;;8.10;5.93;;;;;;;;;;4970859;28;20061;-78
2023/03/08 12:51:04;;;;;;;17.73;15.95;;;;;;;;;;4971237;28;20126;-78
2023/03/08 12:53:36;;;;;;;8.48;6.38;;;;;;;;;;4970736;28;21304;-77
2023/03/08 12:56:09;;;;;;;10.80;7.60;;;;;;;;;;4970854;28;20137;-78
2023/03/08 13:01:46;;;;;;;18.05;9.13;;;;;;;;;;4969655;28;20122;-79
2023/03/08 13:04:23;;;;;;;10.13;6.32;;;;;;;;;;4969172;28;20049;-77
2023/03/08 13:07:06;;;;;;;;;;;;;;;;;;4965846;28;20078;-77
2023/03/08 13:09:33;;;;;;;8.93;6.72;;;;;;;;;;4950577;28;20024;-76
2023/03/08 13:12:16;;;;;;;13.20;6.70;;;;;;;;;;4953294;28;20067;-77
2023/03/08 13:14:43;;;;;;;8.48;6.18;;;;;;;;;;4972092;28;20234;-77
2023/03/08 13:17:30;;;;;;;10.10;6.30;;;;;;;;;;4953742;28;20235;-78
2023/03/08 13:19:59;;;;;;;8.63;6.65;;;;;;;;;;4971374;28;20057;-77
2023/03/08 13:22:35;;;;;;;7.65;6.63;;;;;;;;;;4953069;28;20046;-77
2023/03/08 13:25:21;;;;;;;8.32;6.93;;;;;;;;;;4957204;28;20105;-78
2023/03/08 13:28:00;;;;;;;10.63;7.38;;;;;;;;;;4968579;28;20089;-77
2023/03/08 13:30:30;;;;;;;10.93;7.45;;;;;;;;;;4952569;28;20505;-78
2023/03/08 13:32:58;;;;;;;9.38;7.32;;;;;;;;;;4954219;29;20051;-76
2023/03/08 13:35:26;;;;;;;8.65;6.65;;;;;;;;;;4966008;29;20054;-77
2023/03/08 13:37:58;;;;;;;10.38;7.80;;;;;;;;;;4966434;29;20317;-78
2023/03/08 13:40:27;;;;;;;11.15;8.40;;;;;;;;;;4951129;29;20608;-78
2023/03/08 13:43:01;;;;;;;12.10;8.68;;;;;;;;;;4932825;29;20074;-79
2023/03/08 13:45:29;;;;;;;10.27;7.53;;;;;;;;;;4949086;29;20045;-78
2023/03/08 13:48:02;;;;;;;15.25;7.50;;;;;;;;;;4932265;29;20166;-78
2023/03/08 13:50:29;;;;;;;10.18;7.70;;;;;;;;;;4949113;29;20043;-77
2023/03/08 13:52:58;;;;;;;9.57;7.43;;;;;;;;;;4932076;29;20050;-77
2023/03/08 13:55:30;;;;;;;11.82;7.55;;;;;;;;;;4951092;29;20059;-77
2023/03/08 13:57:58;;;;;;;15.60;7.97;;;;;;;;;;4951377;29;20054;-78
2023/03/08 14:00:27;;;;;;;9.15;7.05;;;;;;;;;;4950796;28;20055;-78
2023/03/08 14:02:56;;;;;;;16.15;12.73;;;;;;;;;;4957023;28;20043;-78
2023/03/08 14:05:26;;;;;;;9.77;7.10;;;;;;;;;;4969921;28;20468;-78
2023/03/08 14:08:02;;;;;;;9.63;7.50;;;;;;;;;;4970365;28;20078;-78
2023/03/08 14:10:31;;;;;;;16.88;7.80;;;;;;;;;;4969924;28;20081;-77
2023/03/08 14:12:59;;;;;;;12.60;8.48;;;;;;;;;;4969285;28;20057;-78
2023/03/08 14:15:26;;;;;;;11.45;7.93;;;;;;;;;;4970158;28;20108;-77
2023/03/08 14:17:56;;;;;;;14.23;8.30;;;;;;;;;;4967311;28;20050;-77
2023/03/08 14:20:24;;;;;;;10.68;7.57;;;;;;;;;;4969620;28;20135;-77
2023/03/08 14:22:52;;;;;;;33.80;21.88;;;;;;;;;;4971671;28;20129;-78
2023/03/08 14:25:25;;;;;;;47.72;35.00;;;;;;;;;;4974244;28;20070;-77
2023/03/08 14:27:53;;;;;;;18.83;10.55;;;;;;;;;;4973824;28;20066;-77
2023/03/08 14:30:44;;;;;;;16.08;11.23;;;;;;;;;;4976470;28;20532;-78
2023/03/08 14:33:14;;;;;;;20.23;9.13;;;;;;;;;;4960025;28;20050;-78
2023/03/08 14:35:44;;;;;;;13.90;11.18;;;;;;;;;;4974581;28;20123;-78
2023/03/08 14:38:19;;;;;;;11.05;8.43;;;;;;;;;;4973835;28;20038;-78
2023/03/08 14:40:48;;;;;;;10.43;8.30;;;;;;;;;;4955725;28;20062;-77
2023/03/08 14:43:20;;;;;;;11.00;7.80;;;;;;;;;;4973271;28;20050;-77
2023/03/08 14:45:52;;;;;;;12.13;7.75;;;;;;;;;;4971650;28;20062;-78
2023/03/08 14:48:29;;;;;;;52.05;34.90;;;;;;;;;;4975143;28;20059;-78
2023/03/08 14:50:57;;;;;;;9.38;7.40;;;;;;;;;;4974247;28;20062;-78
2023/03/08 14:53:28;;;;;;;11.07;7.82;;;;;;;;;;4973158;28;20061;-78
2023/03/08 14:55:56;;;;;;;13.10;7.72;;;;;;;;;;4980500;28;20062;-77
2023/03/08 14:58:26;;;;;;;18.70;7.97;;;;;;;;;;4979074;28;20097;-77
2023/03/08 15:00:55;;;;;;;12.70;7.97;;;;;;;;;;4978609;28;20516;-79